Time;durP1;ratioP1;P1;durP2;ratioP2;P2;SDS_P1;SDS_P2;PMS_P1;PMS_P2;Temp;Humidity;BMP_temperature;BMP_pressure;BME280_temperature;BME280_humidity;BME280_pressure;Samples;Min_cycle;Max_cycle;Signal;HPM_P1;HPM_P2
2023/01/01 00:00:05;;;;;;;623.50;313.20;;;;;;;;;;5055161;28;20025;-77
2023/01/01 00:02:31;;;;;;;530.78;276.08;;;;;;;;;;5056151;28;20037;-77
2023/01/01 00:04:56;;;;;;;690.42;366.75;;;;;;;;;;5054981;28;20116;-77
2023/01/01 00:07:22;;;;;;;515.08;265.33;;;;;;;;;;5054823;28;20025;-76
2023/01/01 00:12:32;;;;;;;515.60;261.63;;;;;;;;;;5055838;28;20064;-77
2023/01/01 00:14:57;;;;;;;445.67;209.85;;;;;;;;;;5055908;28;20069;-76
2023/01/01 00:17:23;;;;;;;365.27;169.40;;;;;;;;;;5056087;28;20029;-77
2023/01/01 00:19:48;;;;;;;329.75;151.43;;;;;;;;;;5055668;28;20033;-77
2023/01/01 00:22:13;;;;;;;372.83;170.15;;;;;;;;;;5055489;28;20466;-77
2023/01/01 00:24:39;;;;;;;385.83;184.40;;;;;;;;;;5037784;28;20032;-77
2023/01/01 00:27:04;;;;;;;431.13;208.10;;;;;;;;;;5054602;28;20100;-76
2023/01/01 00:29:31;;;;;;;458.15;224.05;;;;;;;;;;5055080;28;20128;-77
2023/01/01 00:31:56;;;;;;;461.58;227.95;;;;;;;;;;5055271;28;20143;-77
2023/01/01 00:34:22;;;;;;;472.40;234.25;;;;;;;;;;5055208;28;20041;-76
2023/01/01 00:36:47;;;;;;;491.65;238.82;;;;;;;;;;5055215;28;20048;-77
2023/01/01 00:39:13;;;;;;;469.75;229.57;;;;;;;;;;5055316;28;20434;-77
2023/01/01 00:41:41;;;;;;;471.08;231.80;;;;;;;;;;5055580;28;20063;-77
2023/01/01 00:44:07;;;;;;;470.35;232.75;;;;;;;;;;5037742;28;20060;-76
2023/01/01 00:46:32;;;;;;;422.65;201.65;;;;;;;;;;5054277;28;20138;-77
2023/01/01 00:48:58;;;;;;;394.50;189.60;;;;;;;;;;5055374;28;20037;-77
2023/01/01 00:51:23;;;;;;;350.25;158.85;;;;;;;;;;5020966;28;20090;-77
2023/01/01 00:53:49;;;;;;;430.40;211.70;;;;;;;;;;5055039;28;20028;-77
2023/01/01 00:56:14;;;;;;;369.65;173.90;;;;;;;;;;5055199;28;20091;-76
2023/01/01 00:58:40;;;;;;;267.55;123.30;;;;;;;;;;5021963;28;20400;-77
2023/01/01 01:01:05;;;;;;;260.75;122.47;;;;;;;;;;5055864;28;20434;-76
2023/01/01 01:03:31;;;;;;;281.60;129.93;;;;;;;;;;5053263;28;20068;-77
2023/01/01 01:06:03;;;;;;;261.20;119.22;;;;;;;;;;5054822;28;20112;-77
2023/01/01 01:08:30;;;;;;;245.93;113.03;;;;;;;;;;5054913;28;20110;-77
2023/01/01 01:11:07;;;;;;;251.40;111.32;;;;;;;;;;5054896;28;20029;-77
2023/01/01 01:13:33;;;;;;;238.98;108.05;;;;;;;;;;5037966;28;20120;-78
2023/01/01 01:15:58;;;;;;;247.80;115.15;;;;;;;;;;5054470;28;20052;-78
2023/01/01 01:18:24;;;;;;;265.75;121.93;;;;;;;;;;5054573;28;20029;-78
2023/01/01 01:20:51;;;;;;;291.58;132.77;;;;;;;;;;5054614;28;20060;-78
2023/01/01 01:23:16;;;;;;;283.38;129.35;;;;;;;;;;5020346;28;20373;-78
2023/01/01 01:25:42;;;;;;;283.38;128.35;;;;;;;;;;5054576;28;20025;-78
2023/01/01 01:28:08;;;;;;;276.73;127.47;;;;;;;;;;5053216;28;20054;-78
2023/01/01 01:30:34;;;;;;;256.58;120.05;;;;;;;;;;5036522;28;20067;-78
2023/01/01 01:32:59;;;;;;;258.65;117.80;;;;;;;;;;5052532;28;20025;-75
2023/01/01 01:35:24;;;;;;;255.13;117.25;;;;;;;;;;5054353;28;20055;-77
2023/01/01 01:37:53;;;;;;;237.20;115.47;;;;;;;;;;5054539;28;20079;-75
2023/01/01 01:40:18;;;;;;;247.40;113.82;;;;;;;;;;5070094;28;20025;-76
2023/01/01 01:42:50;;;;;;;269.15;121.43;;;;;;;;;;5054217;28;20040;-78
2023/01/01 01:45:22;;;;;;;260.10;121.55;;;;;;;;;;5036862;28;20453;-78
2023/01/01 01:47:55;;;;;;;267.20;121.18;;;;;;;;;;5003736;28;20186;-76
2023/01/01 01:50:31;;;;;;;281.10;128.98;;;;;;;;;;5052686;28;20029;-77
2023/01/01 01:53:00;;;;;;;290.20;127.53;;;;;;;;;;5036355;28;20060;-77
2023/01/01 01:55:26;;;;;;;306.42;132.52;;;;;;;;;;5054215;28;20450;-77
2023/01/01 01:57:52;;;;;;;346.67;151.82;;;;;;;;;;5052669;28;20028;-76
2023/01/01 02:00:18;;;;;;;392.73;173.68;;;;;;;;;;5035897;28;20086;-76
2023/01/01 02:02:52;;;;;;;404.15;179.38;;;;;;;;;;5054000;28;20028;-76
2023/01/01 02:05:18;;;;;;;424.58;188.07;;;;;;;;;;5054218;28;20033;-75
2023/01/01 02:07:43;;;;;;;411.23;184.88;;;;;;;;;;5005563;28;20060;-77
2023/01/01 02:10:09;;;;;;;429.48;192.63;;;;;;;;;;5065696;28;20029;-76
2023/01/01 02:12:35;;;;;;;429.63;186.75;;;;;;;;;;5065203;28;20482;-76
2023/01/01 02:15:00;;;;;;;441.38;190.88;;;;;;;;;;5036396;28;20036;-77
2023/01/01 02:17:47;;;;;;;450.15;193.88;;;;;;;;;;5054104;28;20025;-78
2023/01/01 02:20:18;;;;;;;405.85;172.32;;;;;;;;;;5053873;28;20485;-78
2023/01/01 02:22:57;;;;;;;410.50;173.18;;;;;;;;;;5035975;28;20090;-78
2023/01/01 02:25:45;;;;;;;397.00;167.15;;;;;;;;;;5036197;28;20036;-78
2023/01/01 02:28:22;;;;;;;374.20;163.20;;;;;;;;;;5053470;28;20108;-78
2023/01/01 02:30:48;;;;;;;375.25;164.15;;;;;;;;;;5053242;28;20048;-78
2023/01/01 02:33:19;;;;;;;346.80;156.05;;;;;;;;;;5052228;28;20039;-77
2023/01/01 02:35:53;;;;;;;340.80;149.63;;;;;;;;;;5052103;28;20021;-79
2023/01/01 02:38:24;;;;;;;333.25;152.50;;;;;;;;;;5036337;28;20032;-78
2023/01/01 02:40:52;;;;;;;;;;;;;;;;;;5059900;28;20033;-76
2023/01/01 02:43:17;;;;;;;297.60;131.13;;;;;;;;;;5079078;28;19996;-78
2023/01/01 02:45:42;;;;;;;307.13;142.52;;;;;;;;;;5053999;28;20060;-77
2023/01/01 02:48:42;;;;;;;296.10;138.38;;;;;;;;;;5052895;28;20036;-77
2023/01/01 02:51:32;;;;;;;312.35;141.73;;;;;;;;;;5053655;28;20068;-77
2023/01/01 02:54:16;;;;;;;303.52;137.73;;;;;;;;;;5035232;28;20041;-77
2023/01/01 02:56:45;;;;;;;304.95;138.10;;;;;;;;;;5037307;28;20021;-77
2023/01/01 03:02:21;;;;;;;308.85;143.77;;;;;;;;;;5053318;28;20059;-77
2023/01/01 03:04:54;;;;;;;327.02;158.20;;;;;;;;;;5053380;28;20059;-77
2023/01/01 03:07:42;;;;;;;349.23;167.73;;;;;;;;;;5036601;28;20036;-75
2023/01/01 03:10:23;;;;;;;356.02;174.80;;;;;;;;;;5038055;28;20039;-76
2023/01/01 03:13:13;;;;;;;339.30;164.20;;;;;;;;;;5068352;28;20037;-76
2023/01/01 03:15:41;;;;;;;369.52;174.75;;;;;;;;;;5035473;28;20457;-77
2023/01/01 03:18:20;;;;;;;344.55;161.48;;;;;;;;;;5053029;28;20025;-77
2023/01/01 03:20:47;;;;;;;343.48;162.95;;;;;;;;;;5052877;28;20095;-77
2023/01/01 03:23:21;;;;;;;343.42;170.38;;;;;;;;;;5035577;28;20079;-77
2023/01/01 03:25:51;;;;;;;315.80;147.02;;;;;;;;;;5036280;28;20029;-77
2023/01/01 03:28:18;;;;;;;306.40;144.87;;;;;;;;;;5056601;28;20481;-77
2023/01/01 03:30:44;;;;;;;245.68;121.03;;;;;;;;;;5055052;28;20306;-76
2023/01/01 03:33:29;;;;;;;295.58;137.95;;;;;;;;;;5038923;28;20029;-78
2023/01/01 03:36:00;;;;;;;198.77;93.78;;;;;;;;;;5038684;28;20021;-76
2023/01/01 03:38:39;;;;;;;145.30;69.80;;;;;;;;;;5055031;28;20020;-77
2023/01/01 03:41:22;;;;;;;162.15;81.93;;;;;;;;;;5056474;28;20021;-77
2023/01/01 03:44:07;;;;;;;158.10;80.25;;;;;;;;;;5039690;28;20438;-77
2023/01/01 03:46:34;;;;;;;220.00;105.80;;;;;;;;;;5038508;28;20033;-77
2023/01/01 03:48:59;;;;;;;290.90;133.93;;;;;;;;;;5055122;28;20037;-77
2023/01/01 03:51:34;;;;;;;283.48;135.10;;;;;;;;;;5055146;28;20508;-77
2023/01/01 03:54:01;;;;;;;300.85;135.88;;;;;;;;;;5056277;28;20029;-78
2023/01/01 03:56:44;;;;;;;284.58;123.90;;;;;;;;;;5038531;28;20067;-77
2023/01/01 03:59:28;;;;;;;267.58;121.60;;;;;;;;;;5038173;28;20461;-78
2023/01/01 04:01:56;;;;;;;233.73;103.97;;;;;;;;;;5038792;28;20021;-77
2023/01/01 04:04:22;;;;;;;221.18;100.40;;;;;;;;;;5038038;28;20067;-76
2023/01/01 04:06:48;;;;;;;218.50;93.35;;;;;;;;;;5054764;28;20025;-76
2023/01/01 04:09:18;;;;;;;212.27;94.93;;;;;;;;;;5055098;28;20036;-77
2023/01/01 04:12:05;;;;;;;;;;;;;;;;;;5043775;28;20017;-77
2023/01/01 04:14:40;;;;;;;184.88;80.68;;;;;;;;;;5074149;28;20000;-77
2023/01/01 04:17:06;;;;;;;203.85;90.70;;;;;;;;;;5039757;28;20092;-76
2023/01/01 04:19:32;;;;;;;193.68;87.07;;;;;;;;;;5056141;28;20419;-77
2023/01/01 04:21:57;;;;;;;184.18;81.65;;;;;;;;;;5054472;28;20056;-78
2023/01/01 04:24:23;;;;;;;187.43;83.50;;;;;;;;;;5055870;28;20029;-77
2023/01/01 04:26:50;;;;;;;198.05;82.97;;;;;;;;;;5055412;28;20422;-77
2023/01/01 04:29:16;;;;;;;197.25;85.95;;;;;;;;;;5055365;28;20036;-76
2023/01/01 04:31:41;;;;;;;198.38;87.10;;;;;;;;;;5055336;28;20029;-77
2023/01/01 04:34:07;;;;;;;197.23;86.00;;;;;;;;;;5055586;28;20492;-77
2023/01/01 04:36:36;;;;;;;188.10;86.35;;;;;;;;;;5037951;28;20420;-77
2023/01/01 04:39:02;;;;;;;190.75;86.43;;;;;;;;;;5021188;28;20029;-77
2023/01/01 04:41:28;;;;;;;190.82;89.47;;;;;;;;;;5037245;28;20024;-77
2023/01/01 04:43:53;;;;;;;184.43;86.05;;;;;;;;;;5055039;28;20051;-77
2023/01/01 04:46:19;;;;;;;174.65;81.60;;;;;;;;;;5055225;28;20021;-77
2023/01/01 04:48:45;;;;;;;174.27;82.90;;;;;;;;;;5054996;28;20021;-77
2023/01/01 04:51:11;;;;;;;167.30;84.53;;;;;;;;;;5054927;28;20470;-77
2023/01/01 04:53:37;;;;;;;178.43;82.38;;;;;;;;;;5055530;28;20033;-77
2023/01/01 04:56:15;;;;;;;167.48;83.30;;;;;;;;;;5054580;28;20377;-77
2023/01/01 04:58:41;;;;;;;166.95;84.60;;;;;;;;;;5054995;28;20035;-77
2023/01/01 05:01:21;;;;;;;175.90;89.35;;;;;;;;;;5037093;28;20112;-77
2023/01/01 05:03:46;;;;;;;169.90;87.32;;;;;;;;;;5038214;28;20033;-76
2023/01/01 05:06:12;;;;;;;161.80;83.05;;;;;;;;;;5054872;28;20029;-77
2023/01/01 05:08:39;;;;;;;160.38;81.72;;;;;;;;;;5037124;28;20036;-77
2023/01/01 05:11:06;;;;;;;150.05;74.45;;;;;;;;;;5037015;28;20028;-78
2023/01/01 05:13:36;;;;;;;160.95;79.85;;;;;;;;;;5054733;28;20036;-77
2023/01/01 05:16:02;;;;;;;168.23;84.57;;;;;;;;;;5053650;28;20083;-78
2023/01/01 05:18:28;;;;;;;154.90;75.47;;;;;;;;;;5054668;28;20025;-77
2023/01/01 05:21:01;;;;;;;149.90;71.60;;;;;;;;;;5055438;28;20040;-78
2023/01/01 05:23:29;;;;;;;154.32;74.63;;;;;;;;;;5059956;28;20116;-76
2023/01/01 05:25:55;;;;;;;157.15;77.65;;;;;;;;;;5068038;28;20037;-76
2023/01/01 05:28:22;;;;;;;155.75;78.53;;;;;;;;;;5059090;28;20041;-77
2023/01/01 05:30:49;;;;;;;157.23;77.70;;;;;;;;;;5054132;28;20040;-76
2023/01/01 05:33:15;;;;;;;156.88;73.72;;;;;;;;;;5054181;28;20139;-77
2023/01/01 05:35:40;;;;;;;164.70;78.05;;;;;;;;;;5054494;28;20132;-77
2023/01/01 05:38:06;;;;;;;157.68;75.40;;;;;;;;;;5054344;28;20037;-77
2023/01/01 05:40:31;;;;;;;171.52;80.55;;;;;;;;;;5054708;28;21029;-76
2023/01/01 05:42:57;;;;;;;168.60;82.07;;;;;;;;;;5053013;28;20544;-77
2023/01/01 05:45:22;;;;;;;177.25;87.47;;;;;;;;;;5054313;28;20385;-78
2023/01/01 05:47:47;;;;;;;180.32;91.22;;;;;;;;;;5052834;28;20047;-75
2023/01/01 05:50:13;;;;;;;186.13;93.07;;;;;;;;;;5053685;28;20025;-78
2023/01/01 05:52:38;;;;;;;191.35;94.15;;;;;;;;;;5054569;28;20029;-77
2023/01/01 05:55:04;;;;;;;215.32;104.55;;;;;;;;;;5063942;28;20036;-76
2023/01/01 05:57:32;;;;;;;196.38;99.10;;;;;;;;;;5052045;28;20043;-77
2023/01/01 05:59:58;;;;;;;214.50;102.95;;;;;;;;;;5037263;28;20037;-76
2023/01/01 06:02:24;;;;;;;225.10;109.43;;;;;;;;;;5054139;28;20029;-77
2023/01/01 06:04:49;;;;;;;213.55;103.85;;;;;;;;;;5052497;28;20118;-76
2023/01/01 06:07:14;;;;;;;221.60;102.03;;;;;;;;;;5053641;28;20029;-78
2023/01/01 06:09:40;;;;;;;205.63;97.10;;;;;;;;;;5053745;28;20033;-76
2023/01/01 06:12:06;;;;;;;200.65;97.32;;;;;;;;;;5052766;28;20032;-76
2023/01/01 06:14:32;;;;;;;196.93;94.50;;;;;;;;;;5053861;28;20088;-77
2023/01/01 06:16:57;;;;;;;183.98;90.60;;;;;;;;;;5053657;28;20134;-77
2023/01/01 06:19:22;;;;;;;183.77;90.18;;;;;;;;;;5053525;28;20033;-75
2023/01/01 06:21:48;;;;;;;181.98;88.50;;;;;;;;;;5052230;28;20049;-77
2023/01/01 06:24:14;;;;;;;181.07;87.93;;;;;;;;;;5036415;28;20029;-76
2023/01/01 06:26:42;;;;;;;173.05;86.68;;;;;;;;;;5053547;28;20039;-77
2023/01/01 06:29:07;;;;;;;198.77;93.82;;;;;;;;;;5036118;28;20037;-77
2023/01/01 06:31:33;;;;;;;178.00;86.68;;;;;;;;;;5054152;28;20033;-77
2023/01/01 06:33:58;;;;;;;164.45;78.60;;;;;;;;;;5053302;28;20095;-75
2023/01/01 06:36:24;;;;;;;160.55;79.10;;;;;;;;;;5053503;28;20036;-77
2023/01/01 06:38:51;;;;;;;162.90;80.13;;;;;;;;;;5053528;28;20032;-77
2023/01/01 06:41:18;;;;;;;180.35;88.07;;;;;;;;;;5053444;28;20029;-77
2023/01/01 06:43:44;;;;;;;184.93;89.75;;;;;;;;;;5053653;28;20029;-77
2023/01/01 06:46:22;;;;;;;165.32;80.72;;;;;;;;;;5053715;28;20033;-77
2023/01/01 06:48:49;;;;;;;180.52;85.95;;;;;;;;;;5053530;28;20131;-77
2023/01/01 06:51:22;;;;;;;183.10;86.43;;;;;;;;;;5035764;28;20029;-77
2023/01/01 06:53:48;;;;;;;165.18;83.72;;;;;;;;;;5053454;28;20040;-76
2023/01/01 06:56:13;;;;;;;161.70;81.70;;;;;;;;;;5035709;28;20048;-76
2023/01/01 06:58:39;;;;;;;162.60;80.00;;;;;;;;;;5053284;28;20508;-78
2023/01/01 07:01:08;;;;;;;164.48;79.10;;;;;;;;;;5054879;28;20056;-78
2023/01/01 07:03:33;;;;;;;162.15;81.18;;;;;;;;;;5057371;28;20041;-77
2023/01/01 07:05:59;;;;;;;197.57;93.10;;;;;;;;;;5057106;28;20029;-77
2023/01/01 07:08:25;;;;;;;191.65;93.35;;;;;;;;;;5057051;28;20028;-76
2023/01/01 07:10:50;;;;;;;191.50;89.80;;;;;;;;;;5038917;28;20047;-77
2023/01/01 07:13:16;;;;;;;189.20;87.03;;;;;;;;;;5056822;28;20029;-77
2023/01/01 07:15:43;;;;;;;171.05;81.18;;;;;;;;;;5056890;28;20029;-77
2023/01/01 07:18:08;;;;;;;163.07;80.15;;;;;;;;;;5057026;28;20103;-78
2023/01/01 07:20:34;;;;;;;155.98;79.53;;;;;;;;;;5056437;28;20454;-76
2023/01/01 07:23:01;;;;;;;151.88;74.63;;;;;;;;;;5056151;28;20033;-77
2023/01/01 07:25:26;;;;;;;147.35;73.75;;;;;;;;;;5056646;28;20185;-79
2023/01/01 07:27:52;;;;;;;150.80;74.47;;;;;;;;;;5056852;28;20434;-77
2023/01/01 07:30:17;;;;;;;139.77;71.97;;;;;;;;;;5056743;28;20056;-77
2023/01/01 07:32:44;;;;;;;140.73;70.80;;;;;;;;;;5057154;28;20049;-77
2023/01/01 07:35:10;;;;;;;137.88;69.88;;;;;;;;;;5056213;28;20123;-78
2023/01/01 07:37:35;;;;;;;144.45;69.45;;;;;;;;;;5057028;28;20079;-78
2023/01/01 07:40:01;;;;;;;136.65;69.95;;;;;;;;;;5056497;28;20036;-77
2023/01/01 07:42:26;;;;;;;130.88;67.88;;;;;;;;;;5056646;28;20037;-76
2023/01/01 07:44:52;;;;;;;129.93;66.40;;;;;;;;;;5056630;28;20040;-77
2023/01/01 07:47:22;;;;;;;137.95;67.97;;;;;;;;;;5056642;28;20047;-77
2023/01/01 07:49:47;;;;;;;137.15;68.30;;;;;;;;;;5056279;28;20135;-78
2023/01/01 07:52:13;;;;;;;129.50;67.13;;;;;;;;;;5056142;28;20124;-76
2023/01/01 07:54:38;;;;;;;133.60;66.90;;;;;;;;;;5056716;28;20072;-76
2023/01/01 07:57:03;;;;;;;130.77;67.78;;;;;;;;;;5038187;28;20516;-75
2023/01/01 07:59:29;;;;;;;146.77;75.32;;;;;;;;;;5038621;28;20385;-77
2023/01/01 08:01:55;;;;;;;130.65;67.55;;;;;;;;;;5056676;28;20366;-76
2023/01/01 08:04:20;;;;;;;153.25;76.32;;;;;;;;;;5056269;28;20461;-77
2023/01/01 08:06:45;;;;;;;149.27;77.78;;;;;;;;;;5056228;28;20033;-76
2023/01/01 08:09:11;;;;;;;149.90;78.97;;;;;;;;;;5038325;28;20060;-76
2023/01/01 08:11:36;;;;;;;144.15;75.00;;;;;;;;;;5055744;28;20458;-77
2023/01/01 08:14:02;;;;;;;146.50;77.07;;;;;;;;;;5038057;28;20035;-77
2023/01/01 08:16:27;;;;;;;140.75;73.93;;;;;;;;;;5038678;28;20060;-77
2023/01/01 08:18:53;;;;;;;136.70;71.65;;;;;;;;;;5038095;28;20446;-77
2023/01/01 08:21:18;;;;;;;145.63;75.75;;;;;;;;;;5055783;28;20112;-77
2023/01/01 08:23:43;;;;;;;144.65;76.75;;;;;;;;;;5056223;28;20028;-77
2023/01/01 08:26:16;;;;;;;150.82;78.80;;;;;;;;;;5038498;28;20476;-77
2023/01/01 08:28:41;;;;;;;147.95;75.03;;;;;;;;;;5038274;28;20421;-78
2023/01/01 08:31:07;;;;;;;151.10;77.72;;;;;;;;;;5055856;28;20053;-77
2023/01/01 08:33:32;;;;;;;176.35;91.45;;;;;;;;;;5037965;28;20091;-78
2023/01/01 08:35:58;;;;;;;161.35;82.45;;;;;;;;;;5055555;28;20029;-78
2023/01/01 08:38:24;;;;;;;147.23;77.95;;;;;;;;;;5039362;28;20085;-77
2023/01/01 08:40:49;;;;;;;148.73;78.18;;;;;;;;;;5064889;28;20116;-76
2023/01/01 08:43:14;;;;;;;139.73;73.55;;;;;;;;;;5063305;28;20025;-77
2023/01/01 08:45:40;;;;;;;137.57;68.78;;;;;;;;;;5055571;28;20028;-77
2023/01/01 08:48:05;;;;;;;127.60;67.45;;;;;;;;;;5055354;28;20032;-77
2023/01/01 08:50:31;;;;;;;121.78;63.30;;;;;;;;;;5055842;28;20021;-77
2023/01/01 08:52:57;;;;;;;120.07;60.78;;;;;;;;;;5037721;28;20454;-77
2023/01/01 08:55:23;;;;;;;113.60;61.00;;;;;;;;;;5054219;28;20124;-77
2023/01/01 08:57:48;;;;;;;111.82;60.08;;;;;;;;;;5054084;28;20068;-77
2023/01/01 09:00:15;;;;;;;108.93;55.53;;;;;;;;;;5021088;28;20028;-77
2023/01/01 09:02:40;;;;;;;97.45;51.63;;;;;;;;;;5037330;28;20024;-76
2023/01/01 09:05:06;;;;;;;88.70;49.45;;;;;;;;;;5055840;28;20043;-76
2023/01/01 09:07:32;;;;;;;96.13;48.92;;;;;;;;;;5054538;28;20156;-77
2023/01/01 09:09:57;;;;;;;94.57;50.95;;;;;;;;;;5057391;28;20455;-78
2023/01/01 09:12:23;;;;;;;104.15;53.70;;;;;;;;;;5060368;28;20056;-77
2023/01/01 09:14:48;;;;;;;112.75;59.50;;;;;;;;;;5058854;28;20045;-78
2023/01/01 09:17:14;;;;;;;111.07;58.03;;;;;;;;;;5037250;28;20082;-75
2023/01/01 09:19:39;;;;;;;103.68;55.10;;;;;;;;;;5037102;28;20028;-78
2023/01/01 09:22:10;;;;;;;114.63;58.83;;;;;;;;;;5055219;28;20029;-79
2023/01/01 09:24:36;;;;;;;110.60;56.85;;;;;;;;;;5038184;28;20059;-78
2023/01/01 09:27:01;;;;;;;97.45;52.25;;;;;;;;;;5037978;28;20430;-76
2023/01/01 09:29:27;;;;;;;81.97;43.28;;;;;;;;;;5054718;28;20055;-76
2023/01/01 09:31:52;;;;;;;78.65;40.65;;;;;;;;;;5036789;28;20505;-77
2023/01/01 09:34:18;;;;;;;68.00;37.60;;;;;;;;;;5054541;28;20413;-76
2023/01/01 09:36:44;;;;;;;66.28;37.38;;;;;;;;;;5036580;28;20435;-75
2023/01/01 09:39:11;;;;;;;61.33;33.17;;;;;;;;;;5054295;28;20083;-76
2023/01/01 09:41:43;;;;;;;60.95;34.90;;;;;;;;;;5037479;28;20043;-76
2023/01/01 09:44:11;;;;;;;61.20;35.15;;;;;;;;;;5054795;28;20047;-75
2023/01/01 09:46:36;;;;;;;62.42;36.08;;;;;;;;;;5036426;28;20045;-78
2023/01/01 09:49:05;;;;;;;65.85;38.67;;;;;;;;;;5054613;28;20037;-78
2023/01/01 09:51:33;;;;;;;68.43;39.38;;;;;;;;;;5036938;28;20029;-77
2023/01/01 09:54:32;;;;;;;54.50;32.75;;;;;;;;;;5037251;28;20036;-78
2023/01/01 09:56:59;;;;;;;60.45;34.35;;;;;;;;;;5010653;28;20386;-79
2023/01/01 09:59:24;;;;;;;54.75;33.83;;;;;;;;;;5055020;28;20088;-78
2023/01/01 10:02:17;;;;;;;61.53;34.88;;;;;;;;;;5055656;28;20086;-77
2023/01/01 10:04:52;;;;;;;59.80;35.58;;;;;;;;;;5054634;28;20029;-78
2023/01/01 10:07:30;;;;;;;59.75;34.20;;;;;;;;;;5055031;28;20071;-77
2023/01/01 10:10:19;;;;;;;60.22;35.70;;;;;;;;;;5037561;28;20037;-79
2023/01/01 10:13:03;;;;;;;58.88;34.35;;;;;;;;;;5043523;28;20037;-78
2023/01/01 10:15:31;;;;;;;58.65;33.95;;;;;;;;;;5052613;28;20512;-77
2023/01/01 10:17:58;;;;;;;54.17;30.92;;;;;;;;;;5052921;28;20032;-75
2023/01/01 10:20:28;;;;;;;54.50;31.80;;;;;;;;;;5052929;28;20056;-76
2023/01/01 10:22:56;;;;;;;53.70;31.33;;;;;;;;;;5036447;28;20108;-75
2023/01/01 10:25:24;;;;;;;49.70;29.23;;;;;;;;;;5053008;28;20047;-76
2023/01/01 10:28:01;;;;;;;52.15;28.92;;;;;;;;;;5036167;28;20057;-76
2023/01/01 10:30:27;;;;;;;45.25;27.73;;;;;;;;;;5041274;28;20188;-75
2023/01/01 10:32:53;;;;;;;50.55;29.85;;;;;;;;;;5016941;28;20075;-78
2023/01/01 10:35:29;;;;;;;48.58;27.25;;;;;;;;;;5034991;28;20039;-77
2023/01/01 10:37:55;;;;;;;55.88;31.00;;;;;;;;;;5037879;28;20446;-76
2023/01/01 10:40:22;;;;;;;50.50;29.65;;;;;;;;;;5020480;28;20041;-76
2023/01/01 10:42:49;;;;;;;42.92;26.70;;;;;;;;;;5036546;28;20521;-76
2023/01/01 10:45:21;;;;;;;49.95;29.08;;;;;;;;;;5020549;28;20044;-78
2023/01/01 10:48:11;;;;;;;47.25;26.05;;;;;;;;;;5020268;28;20415;-78
2023/01/01 10:50:44;;;;;;;39.40;23.75;;;;;;;;;;5037550;28;20029;-78
2023/01/01 10:53:25;;;;;;;45.45;25.73;;;;;;;;;;5037901;28;20053;-77
2023/01/01 10:55:57;;;;;;;42.50;26.17;;;;;;;;;;5037716;28;20462;-78
2023/01/01 10:58:34;;;;;;;40.63;24.75;;;;;;;;;;5020436;28;20026;-78
2023/01/01 11:01:01;;;;;;;36.72;22.80;;;;;;;;;;5020974;28;20426;-75
2023/01/01 11:03:26;;;;;;;39.10;23.02;;;;;;;;;;5036465;28;20038;-76
2023/01/01 11:06:18;;;;;;;34.85;20.92;;;;;;;;;;5037679;28;20493;-76
2023/01/01 11:08:56;;;;;;;31.05;19.33;;;;;;;;;;5037656;28;20353;-77
2023/01/01 11:11:28;;;;;;;30.30;18.30;;;;;;;;;;5035971;28;20041;-77
2023/01/01 11:13:58;;;;;;;32.03;18.00;;;;;;;;;;5019955;28;20059;-76
2023/01/01 11:16:24;;;;;;;31.02;18.13;;;;;;;;;;5052561;28;20030;-77
2023/01/01 11:18:49;;;;;;;29.20;17.75;;;;;;;;;;5037190;28;20025;-77
2023/01/01 11:21:20;;;;;;;31.17;17.90;;;;;;;;;;5036792;28;20041;-77
2023/01/01 11:23:46;;;;;;;31.08;17.95;;;;;;;;;;5019643;28;20087;-77
2023/01/01 11:26:11;;;;;;;26.55;17.02;;;;;;;;;;5019237;28;20108;-78
2023/01/01 11:28:37;;;;;;;29.05;17.73;;;;;;;;;;5036953;28;20355;-78
2023/01/01 11:31:04;;;;;;;32.90;18.95;;;;;;;;;;5034614;28;20091;-78
2023/01/01 11:33:30;;;;;;;29.20;18.42;;;;;;;;;;5039003;28;20037;-78
2023/01/01 11:35:56;;;;;;;33.17;19.98;;;;;;;;;;5038644;28;20438;-78
2023/01/01 11:38:22;;;;;;;33.72;19.70;;;;;;;;;;5022412;28;20064;-78
2023/01/01 11:40:50;;;;;;;34.55;19.60;;;;;;;;;;5038548;28;20051;-78
2023/01/01 11:43:19;;;;;;;30.83;19.38;;;;;;;;;;5056701;28;20024;-78
2023/01/01 11:45:45;;;;;;;33.03;18.83;;;;;;;;;;5055239;28;20127;-78
2023/01/01 11:48:19;;;;;;;34.13;19.33;;;;;;;;;;5056016;28;20072;-77
2023/01/01 11:51:00;;;;;;;32.20;18.98;;;;;;;;;;5056607;28;20067;-77
2023/01/01 11:53:31;;;;;;;32.35;18.35;;;;;;;;;;5055748;28;20350;-77
2023/01/01 11:56:11;;;;;;;31.38;18.75;;;;;;;;;;5039080;28;20067;-79
2023/01/01 11:58:52;;;;;;;35.83;17.15;;;;;;;;;;5057596;28;20041;-77
2023/01/01 12:01:32;;;;;;;41.25;21.15;;;;;;;;;;5058365;28;20125;-78
2023/01/01 12:03:58;;;;;;;34.30;18.80;;;;;;;;;;5060861;28;20043;-78
2023/01/01 12:06:33;;;;;;;29.13;17.40;;;;;;;;;;5059366;28;20123;-77
2023/01/01 12:09:19;;;;;;;32.00;19.45;;;;;;;;;;5056640;28;20029;-77
2023/01/01 12:12:08;;;;;;;31.45;18.65;;;;;;;;;;5040353;28;20029;-78
2023/01/01 12:14:39;;;;;;;36.40;19.53;;;;;;;;;;5038259;28;20127;-77
2023/01/01 12:17:24;;;;;;;36.30;19.50;;;;;;;;;;5055221;28;20147;-78
2023/01/01 12:19:55;;;;;;;31.13;19.40;;;;;;;;;;5056139;28;20033;-78
2023/01/01 12:22:22;;;;;;;33.33;20.23;;;;;;;;;;5056002;28;20025;-76
2023/01/01 12:24:47;;;;;;;33.55;19.35;;;;;;;;;;5054666;28;20099;-79
2023/01/01 12:27:18;;;;;;;35.67;18.58;;;;;;;;;;5038237;28;20462;-76
2023/01/01 12:29:43;;;;;;;30.88;19.10;;;;;;;;;;5049143;28;20052;-76
2023/01/01 12:32:17;;;;;;;32.05;20.20;;;;;;;;;;5035928;28;20029;-78
2023/01/01 12:34:45;;;;;;;41.13;19.38;;;;;;;;;;5037342;28;20033;-76
2023/01/01 12:37:31;;;;;;;30.63;18.45;;;;;;;;;;5042968;28;20446;-77
2023/01/01 12:40:24;;;;;;;34.03;19.92;;;;;;;;;;5036066;28;20052;-76
2023/01/01 12:43:14;;;;;;;34.75;20.58;;;;;;;;;;5036120;28;20034;-76
2023/01/01 12:45:42;;;;;;;31.25;19.20;;;;;;;;;;5035783;28;20050;-76
2023/01/01 12:48:11;;;;;;;37.65;22.42;;;;;;;;;;5017609;28;20049;-76
2023/01/01 12:50:50;;;;;;;34.60;19.60;;;;;;;;;;5035449;28;20088;-77
2023/01/01 12:53:28;;;;;;;34.10;21.08;;;;;;;;;;5018091;28;20052;-76
2023/01/01 12:56:18;;;;;;;34.03;20.67;;;;;;;;;;5017497;28;20029;-76
2023/01/01 12:59:02;;;;;;;;;;;;;;;;;;5018492;28;20025;-77
2023/01/01 13:01:30;;;;;;;34.80;20.25;;;;;;;;;;5017476;28;20430;-77
2023/01/01 13:04:11;;;;;;;38.45;22.67;;;;;;;;;;5034003;28;20525;-77
2023/01/01 13:06:44;;;;;;;54.55;28.95;;;;;;;;;;5018258;28;20041;-77
2023/01/01 13:09:21;;;;;;;55.22;31.33;;;;;;;;;;5017218;28;20056;-76
2023/01/01 13:11:52;;;;;;;56.90;31.67;;;;;;;;;;5017442;28;20045;-76
2023/01/01 13:14:18;;;;;;;54.72;29.27;;;;;;;;;;5033792;28;20064;-77
2023/01/01 13:16:51;;;;;;;63.72;32.65;;;;;;;;;;5035121;28;20029;-76
2023/01/01 13:19:29;;;;;;;59.75;30.25;;;;;;;;;;5017723;28;20079;-77
2023/01/01 13:21:55;;;;;;;50.30;27.80;;;;;;;;;;5034737;28;20385;-77
2023/01/01 13:24:22;;;;;;;53.08;26.85;;;;;;;;;;5034517;28;20018;-77
2023/01/01 13:26:48;;;;;;;54.65;27.73;;;;;;;;;;5017122;28;20055;-77
2023/01/01 13:29:14;;;;;;;44.38;25.60;;;;;;;;;;5016934;28;20018;-78
2023/01/01 13:31:42;;;;;;;45.05;24.88;;;;;;;;;;5034469;28;20032;-77
2023/01/01 13:34:37;;;;;;;44.58;24.13;;;;;;;;;;5034285;28;20040;-77
2023/01/01 13:37:16;;;;;;;54.63;25.50;;;;;;;;;;5016785;28;20074;-77
2023/01/01 13:40:00;;;;;;;48.38;25.30;;;;;;;;;;5034248;28;20473;-77
2023/01/01 13:42:54;;;;;;;57.30;29.15;;;;;;;;;;5034229;28;20413;-77
2023/01/01 13:45:33;;;;;;;42.83;23.58;;;;;;;;;;5034430;28;20367;-77
2023/01/01 13:48:04;;;;;;;45.95;24.23;;;;;;;;;;5034449;28;20113;-77
2023/01/01 13:50:41;;;;;;;49.05;27.50;;;;;;;;;;5016731;28;20029;-77
2023/01/01 13:53:41;;;;;;;47.65;24.80;;;;;;;;;;5016596;28;20069;-78
2023/01/01 13:56:09;;;;;;;45.97;22.85;;;;;;;;;;4997638;28;20041;-77
2023/01/01 13:59:00;;;;;;;39.03;21.80;;;;;;;;;;5034301;28;20040;-77
2023/01/01 14:01:48;;;;;;;45.03;22.13;;;;;;;;;;5017995;28;20033;-77
2023/01/01 14:04:34;;;;;;;40.70;22.48;;;;;;;;;;5000288;28;20037;-76
2023/01/01 14:07:02;;;;;;;43.22;23.15;;;;;;;;;;5032478;28;20040;-78
2023/01/01 14:09:27;;;;;;;45.47;24.92;;;;;;;;;;5032600;28;20033;-78
2023/01/01 14:11:53;;;;;;;53.40;26.67;;;;;;;;;;5034175;28;20492;-78
2023/01/01 14:14:23;;;;;;;58.47;30.27;;;;;;;;;;5034025;28;20033;-78
2023/01/01 14:16:52;;;;;;;;;;;;;;;;;;5016993;28;20025;-77
2023/01/01 14:19:18;;;;;;;51.92;27.20;;;;;;;;;;5016388;28;19913;-77
2023/01/01 14:21:43;;;;;;;50.97;27.05;;;;;;;;;;4999677;28;20037;-77
2023/01/01 14:24:09;;;;;;;57.78;28.88;;;;;;;;;;5034224;28;20076;-77
2023/01/01 14:26:36;;;;;;;47.80;26.23;;;;;;;;;;5033000;28;20033;-76